sensor_id;sensor_type;location;lat;lon;timestamp;pressure;altitude;pressure_sealevel;temperature;humidity
70445;BME280;57902;49.638;11.070;2023-03-26T00:01:10;97648.56;;;7.19;91.05
70445;BME280;57902;49.638;11.070;2023-03-26T00:03:40;97643.44;;;7.19;90.86
70445;BME280;57902;49.638;11.070;2023-03-26T00:06:09;97646.03;;;7.17;91.13
70445;BME280;57902;49.638;11.070;2023-03-26T00:08:37;97648.66;;;7.16;91.81
70445;BME280;57902;49.638;11.070;2023-03-26T00:11:05;97649.44;;;7.20;90.88
70445;BME280;57902;49.638;11.070;2023-03-26T00:13:33;97647.66;;;7.22;90.23
70445;BME280;57902;49.638;11.070;2023-03-26T00:15:59;97651.03;;;7.22;90.63
70445;BME280;57902;49.638;11.070;2023-03-26T00:18:27;97655.34;;;7.22;90.88
70445;BME280;57902;49.638;11.070;2023-03-26T00:20:57;97654.31;;;7.29;90.28
70445;BME280;57902;49.638;11.070;2023-03-26T00:23:24;97652.63;;;7.28;90.16
70445;BME280;57902;49.638;11.070;2023-03-26T00:25:52;97660.31;;;7.28;90.10
70445;BME280;57902;49.638;11.070;2023-03-26T00:28:21;97649.44;;;7.20;90.80
70445;BME280;57902;49.638;11.070;2023-03-26T00:30:49;97652.81;;;7.20;90.72
70445;BME280;57902;49.638;11.070;2023-03-26T00:33:22;97656.22;;;7.21;89.86
70445;BME280;57902;49.638;11.070;2023-03-26T00:35:53;97654.59;;;7.18;90.13
70445;BME280;57902;49.638;11.070;2023-03-26T00:38:21;97651.13;;;7.19;89.58
70445;BME280;57902;49.638;11.070;2023-03-26T00:40:50;97658.19;;;7.11;90.50
70445;BME280;57902;49.638;11.070;2023-03-26T00:43:18;97663.44;;;7.06;90.57
70445;BME280;57902;49.638;11.070;2023-03-26T00:45:52;97660.22;;;6.98;91.49
70445;BME280;57902;49.638;11.070;2023-03-26T00:48:21;97655.25;;;6.92;92.01
70445;BME280;57902;49.638;11.070;2023-03-26T00:51:04;97663.75;;;6.94;91.44
70445;BME280;57902;49.638;11.070;2023-03-26T00:53:31;97657.13;;;6.85;93.03
70445;BME280;57902;49.638;11.070;2023-03-26T00:55:58;97656.25;;;6.86;92.25
70445;BME280;57902;49.638;11.070;2023-03-26T00:58:26;97648.66;;;6.83;92.59
70445;BME280;57902;49.638;11.070;2023-03-26T01:00:55;97646.91;;;6.83;92.29
70445;BME280;57902;49.638;11.070;2023-03-26T01:03:27;97652.13;;;6.80;93.21
70445;BME280;57902;49.638;11.070;2023-03-26T01:06:03;97650.41;;;6.79;92.60
70445;BME280;57902;49.638;11.070;2023-03-26T01:11:12;97646.25;;;6.77;93.21
70445;BME280;57902;49.638;11.070;2023-03-26T01:13:45;97640.22;;;6.78;93.18
70445;BME280;57902;49.638;11.070;2023-03-26T01:16:26;97635.09;;;6.78;93.55
70445;BME280;57902;49.638;11.070;2023-03-26T01:18:54;97646.19;;;6.78;93.64
70445;BME280;57902;49.638;11.070;2023-03-26T01:21:28;97633.22;;;6.85;93.22
70445;BME280;57902;49.638;11.070;2023-03-26T01:26:53;97639.81;;;6.95;92.36
70445;BME280;57902;49.638;11.070;2023-03-26T01:29:42;97630.56;;;6.89;93.25
70445;BME280;57902;49.638;11.070;2023-03-26T01:35:27;97634.63;;;6.96;92.66
70445;BME280;57902;49.638;11.070;2023-03-26T01:38:12;97632.25;;;6.90;93.28
70445;BME280;57902;49.638;11.070;2023-03-26T01:40:56;97621.03;;;6.93;92.97
70445;BME280;57902;49.638;11.070;2023-03-26T01:45:52;97632.91;;;6.97;92.44
70445;BME280;57902;49.638;11.070;2023-03-26T01:48:20;97628.69;;;6.94;93.14
70445;BME280;57902;49.638;11.070;2023-03-26T01:50:46;97624.25;;;7.01;92.61
70445;BME280;57902;49.638;11.070;2023-03-26T01:53:16;97627.00;;;6.95;93.30
70445;BME280;57902;49.638;11.070;2023-03-26T02:04:45;97606.41;;;6.98;94.14
70445;BME280;57902;49.638;11.070;2023-03-26T02:07:23;97604.84;;;6.92;94.39
70445;BME280;57902;49.638;11.070;2023-03-26T02:10:01;97592.81;;;6.94;94.08
70445;BME280;57902;49.638;11.070;2023-03-26T02:12:34;97595.28;;;6.99;93.56
70445;BME280;57902;49.638;11.070;2023-03-26T02:15:03;97593.63;;;6.96;93.44
70445;BME280;57902;49.638;11.070;2023-03-26T02:17:35;97588.50;;;6.96;93.12
70445;BME280;57902;49.638;11.070;2023-03-26T02:20:08;97582.69;;;6.90;93.97
70445;BME280;57902;49.638;11.070;2023-03-26T02:22:39;97576.88;;;6.85;94.13
70445;BME280;57902;49.638;11.070;2023-03-26T02:25:26;97570.97;;;6.81;94.22
70445;BME280;57902;49.638;11.070;2023-03-26T02:27:55;97576.25;;;6.75;94.66
70445;BME280;57902;49.638;11.070;2023-03-26T02:30:24;97566.03;;;6.73;94.48
70445;BME280;57902;49.638;11.070;2023-03-26T02:32:52;97570.50;;;6.65;95.32
70445;BME280;57902;49.638;11.070;2023-03-26T02:35:20;97569.81;;;6.60;95.43
70445;BME280;57902;49.638;11.070;2023-03-26T02:37:47;97564.66;;;6.61;94.92
70445;BME280;57902;49.638;11.070;2023-03-26T02:40:19;97572.59;;;6.51;95.79
70445;BME280;57902;49.638;11.070;2023-03-26T02:42:47;97568.41;;;6.48;95.73
70445;BME280;57902;49.638;11.070;2023-03-26T02:45:14;97555.72;;;6.43;95.79
70445;BME280;57902;49.638;11.070;2023-03-26T02:47:40;97564.25;;;6.42;95.30
70445;BME280;57902;49.638;11.070;2023-03-26T02:50:08;97562.72;;;6.35;95.90
70445;BME280;57902;49.638;11.070;2023-03-26T02:52:37;97560.44;;;6.24;97.24
70445;BME280;57902;49.638;11.070;2023-03-26T02:55:04;97567.31;;;6.21;97.43
70445;BME280;57902;49.638;11.070;2023-03-26T02:57:30;97565.00;;;6.11;98.19
70445;BME280;57902;49.638;11.070;2023-03-26T02:59:57;97565.13;;;6.05;98.41
70445;BME280;57902;49.638;11.070;2023-03-26T03:02:23;97566.84;;;6.05;98.67
70445;BME280;57902;49.638;11.070;2023-03-26T03:04:50;97558.41;;;6.01;98.39
70445;BME280;57902;49.638;11.070;2023-03-26T03:07:17;97556.81;;;5.94;99.13
70445;BME280;57902;49.638;11.070;2023-03-26T03:09:43;97548.34;;;5.92;99.26
70445;BME280;57902;49.638;11.070;2023-03-26T03:12:10;97548.34;;;5.92;98.74
70445;BME280;57902;49.638;11.070;2023-03-26T03:14:36;97549.22;;;5.91;98.68
70445;BME280;57902;49.638;11.070;2023-03-26T03:17:03;97544.31;;;5.82;99.29
70445;BME280;57902;49.638;11.070;2023-03-26T03:19:29;97542.63;;;5.81;99.04
70445;BME280;57902;49.638;11.070;2023-03-26T03:21:56;97543.47;;;5.81;98.57
70445;BME280;57902;49.638;11.070;2023-03-26T03:24:22;97542.84;;;5.71;99.50
70445;BME280;57902;49.638;11.070;2023-03-26T03:26:49;97535.28;;;5.65;100.00
70445;BME280;57902;49.638;11.070;2023-03-26T03:29:20;97537.13;;;5.60;100.00
70445;BME280;57902;49.638;11.070;2023-03-26T03:31:46;97535.28;;;5.65;100.00
70445;BME280;57902;49.638;11.070;2023-03-26T03:34:13;97531.09;;;5.63;100.00
70445;BME280;57902;49.638;11.070;2023-03-26T03:36:39;97523.63;;;5.53;100.00
70445;BME280;57902;49.638;11.070;2023-03-26T03:39:06;97523.72;;;5.49;100.00
70445;BME280;57902;49.638;11.070;2023-03-26T03:41:32;97519.53;;;5.44;100.00
70445;BME280;57902;49.638;11.070;2023-03-26T03:43:59;97525.63;;;5.40;100.00
70445;BME280;57902;49.638;11.070;2023-03-26T03:46:26;97513.63;;;5.42;100.00
70445;BME280;57902;49.638;11.070;2023-03-26T03:48:53;97513.63;;;5.42;100.00
70445;BME280;57902;49.638;11.070;2023-03-26T03:51:21;97516.16;;;5.44;100.00
70445;BME280;57902;49.638;11.070;2023-03-26T03:53:48;97502.56;;;5.42;100.00
70445;BME280;57902;49.638;11.070;2023-03-26T03:56:15;97504.31;;;5.40;100.00
70445;BME280;57902;49.638;11.070;2023-03-26T03:58:44;97509.38;;;5.41;100.00
70445;BME280;57902;49.638;11.070;2023-03-26T04:01:11;97510.28;;;5.40;100.00
70445;BME280;57902;49.638;11.070;2023-03-26T04:03:39;97513.69;;;5.39;100.00
70445;BME280;57902;49.638;11.070;2023-03-26T04:06:05;97505.03;;;5.47;100.00
70445;BME280;57902;49.638;11.070;2023-03-26T04:08:35;97512.44;;;5.57;100.00
70445;BME280;57902;49.638;11.070;2023-03-26T04:11:04;97516.53;;;5.66;99.94
70445;BME280;57902;49.638;11.070;2023-03-26T04:13:31;97513.09;;;5.67;99.81
70445;BME280;57902;49.638;11.070;2023-03-26T04:15:58;97508.06;;;5.64;100.00
70445;BME280;57902;49.638;11.070;2023-03-26T04:18:25;97503.75;;;5.66;99.82
70445;BME280;57902;49.638;11.070;2023-03-26T04:20:53;97509.72;;;5.65;99.95
70445;BME280;57902;49.638;11.070;2023-03-26T04:23:21;97501.31;;;5.60;100.00
70445;BME280;57902;49.638;11.070;2023-03-26T04:25:55;97515.19;;;5.50;100.00
70445;BME280;57902;49.638;11.070;2023-03-26T04:28:33;97513.63;;;5.42;100.00
70445;BME280;57902;49.638;11.070;2023-03-26T04:31:02;97505.97;;;5.42;100.00
70445;BME280;57902;49.638;11.070;2023-03-26T04:33:33;97504.31;;;5.40;100.00
70445;BME280;57902;49.638;11.070;2023-03-26T04:36:00;97493.25;;;5.39;100.00
70445;BME280;57902;49.638;11.070;2023-03-26T04:38:29;97493.25;;;5.39;100.00
70445;BME280;57902;49.638;11.070;2023-03-26T04:40:59;97485.59;;;5.39;100.00
70445;BME280;57902;49.638;11.070;2023-03-26T04:43:29;97484.78;;;5.37;100.00
70445;BME280;57902;49.638;11.070;2023-03-26T04:45:56;97481.41;;;5.35;100.00
70445;BME280;57902;49.638;11.070;2023-03-26T04:48:24;97479.78;;;5.31;100.00
70445;BME280;57902;49.638;11.070;2023-03-26T04:50:51;97474.72;;;5.30;100.00
70445;BME280;57902;49.638;11.070;2023-03-26T04:53:19;97473.88;;;5.29;100.00
70445;BME280;57902;49.638;11.070;2023-03-26T04:56:00;97469.56;;;5.31;100.00
70445;BME280;57902;49.638;11.070;2023-03-26T04:58:29;97466.97;;;5.33;100.00
70445;BME280;57902;49.638;11.070;2023-03-26T05:01:01;97469.56;;;5.31;100.00
70445;BME280;57902;49.638;11.070;2023-03-26T05:03:38;97462.72;;;5.33;100.00
70445;BME280;57902;49.638;11.070;2023-03-26T05:06:12;97465.16;;;5.38;100.00
70445;BME280;57902;49.638;11.070;2023-03-26T05:08:48;97460.81;;;5.41;100.00
70445;BME280;57902;49.638;11.070;2023-03-26T05:11:20;97458.25;;;5.41;100.00
70445;BME280;57902;49.638;11.070;2023-03-26T05:13:50;97446.31;;;5.43;100.00
70445;BME280;57902;49.638;11.070;2023-03-26T05:16:21;97443.69;;;5.47;100.00
70445;BME280;57902;49.638;11.070;2023-03-26T05:18:53;97442.75;;;5.51;100.00
70445;BME280;57902;49.638;11.070;2023-03-26T05:21:23;97435.00;;;5.54;100.00
70445;BME280;57902;49.638;11.070;2023-03-26T05:23:58;97440.09;;;5.54;100.00
70445;BME280;57902;49.638;11.070;2023-03-26T05:26:28;97438.19;;;5.62;100.00
70445;BME280;57902;49.638;11.070;2023-03-26T05:28:56;97427.00;;;5.68;100.00
70445;BME280;57902;49.638;11.070;2023-03-26T05:31:31;97417.63;;;5.68;100.00
70445;BME280;57902;49.638;11.070;2023-03-26T05:34:02;97405.41;;;5.79;100.00
70445;BME280;57902;49.638;11.070;2023-03-26T05:36:31;97411.78;;;5.99;100.00
70445;BME280;57902;49.638;11.070;2023-03-26T05:39:14;97399.50;;;6.12;100.00
70445;BME280;57902;49.638;11.070;2023-03-26T05:41:48;97402.66;;;6.22;100.00
70445;BME280;57902;49.638;11.070;2023-03-26T05:44:15;97394.94;;;6.23;100.00
70445;BME280;57902;49.638;11.070;2023-03-26T05:46:41;97392.44;;;6.22;100.00
70445;BME280;57902;49.638;11.070;2023-03-26T05:49:08;97391.50;;;6.24;100.00
70445;BME280;57902;49.638;11.070;2023-03-26T05:51:34;97390.91;;;6.15;100.00
70445;BME280;57902;49.638;11.070;2023-03-26T05:54:01;97383.16;;;6.18;100.00
70445;BME280;57902;49.638;11.070;2023-03-26T05:56:27;97382.34;;;6.16;100.00
70445;BME280;57902;49.638;11.070;2023-03-26T05:58:55;97381.41;;;6.20;100.00
70445;BME280;57902;49.638;11.070;2023-03-26T06:01:21;97380.59;;;6.18;100.00
70445;BME280;57902;49.638;11.070;2023-03-26T06:03:51;97383.03;;;6.22;100.00
70445;BME280;57902;49.638;11.070;2023-03-26T06:06:19;97379.31;;;6.33;99.32
70445;BME280;57902;49.638;11.070;2023-03-26T06:08:50;97369.88;;;6.36;100.00
70445;BME280;57902;49.638;11.070;2023-03-26T06:11:27;97363.88;;;6.37;99.33
70445;BME280;57902;49.638;11.070;2023-03-26T06:13:54;97360.19;;;6.47;98.93
70445;BME280;57902;49.638;11.070;2023-03-26T06:16:20;97349.72;;;6.55;98.29
70445;BME280;57902;49.638;11.070;2023-03-26T06:18:54;97354.50;;;6.66;97.24
70445;BME280;57902;49.638;11.070;2023-03-26T06:21:24;97351.63;;;6.78;96.82
70445;BME280;57902;49.638;11.070;2023-03-26T06:23:51;97348.63;;;6.92;95.68
70445;BME280;57902;49.638;11.070;2023-03-26T06:26:18;97348.22;;;7.06;94.51
70445;BME280;57902;49.638;11.070;2023-03-26T06:28:44;97343.41;;;6.95;95.85
70445;BME280;57902;49.638;11.070;2023-03-26T06:31:11;97344.94;;;7.01;95.56
70445;BME280;57902;49.638;11.070;2023-03-26T06:33:38;97343.88;;;7.08;95.54
70445;BME280;57902;49.638;11.070;2023-03-26T06:36:04;97344.56;;;7.13;94.12
70445;BME280;57902;49.638;11.070;2023-03-26T06:38:31;97349.19;;;7.02;94.68
70445;BME280;57902;49.638;11.070;2023-03-26T06:41:02;97347.38;;;7.06;94.41
70445;BME280;57902;49.638;11.070;2023-03-26T06:43:29;97345.03;;;6.98;94.40
70445;BME280;57902;49.638;11.070;2023-03-26T06:46:02;97348.44;;;6.98;95.13
70445;BME280;57902;49.638;11.070;2023-03-26T06:48:29;97345.50;;;7.11;94.86
70445;BME280;57902;49.638;11.070;2023-03-26T06:50:56;97343.00;;;7.09;94.44
70445;BME280;57902;49.638;11.070;2023-03-26T06:53:23;97336.28;;;7.05;95.16
70445;BME280;57902;49.638;11.070;2023-03-26T06:55:49;97338.66;;;7.11;94.73
70445;BME280;57902;49.638;11.070;2023-03-26T06:58:16;97330.63;;;7.22;94.15
70445;BME280;57902;49.638;11.070;2023-03-26T07:00:42;97334.09;;;7.21;93.12
70445;BME280;57902;49.638;11.070;2023-03-26T07:03:09;97329.13;;;7.16;93.64
70445;BME280;57902;49.638;11.070;2023-03-26T07:05:37;97328.00;;;7.24;93.53
70445;BME280;57902;49.638;11.070;2023-03-26T07:08:04;97328.75;;;7.27;93.40
70445;BME280;57902;49.638;11.070;2023-03-26T07:10:31;97318.06;;;7.14;93.22
70445;BME280;57902;49.638;11.070;2023-03-26T07:12:57;97315.50;;;7.14;94.19
70445;BME280;57902;49.638;11.070;2023-03-26T07:15:25;97314.91;;;7.06;94.46
70445;BME280;57902;49.638;11.070;2023-03-26T07:17:52;97311.91;;;7.20;93.24
70445;BME280;57902;49.638;11.070;2023-03-26T07:20:19;97310.47;;;7.38;91.21
70445;BME280;57902;49.638;11.070;2023-03-26T07:22:46;97308.22;;;7.29;91.63
70445;BME280;57902;49.638;11.070;2023-03-26T07:25:13;97311.19;;;7.16;93.79
70445;BME280;57902;49.638;11.070;2023-03-26T07:33:21;97303.66;;;7.10;93.92
70445;BME280;57902;49.638;11.070;2023-03-26T07:38:54;97295.97;;;7.10;95.46
70445;BME280;57902;49.638;11.070;2023-03-26T07:44:33;97291.03;;;7.04;97.08
70445;BME280;57902;49.638;11.070;2023-03-26T07:47:16;97278.94;;;7.09;97.40
70445;BME280;57902;49.638;11.070;2023-03-26T07:49:45;97280.06;;;7.27;94.98
70445;BME280;57902;49.638;11.070;2023-03-26T07:52:11;97274.97;;;7.26;94.58
70445;BME280;57902;49.638;11.070;2023-03-26T07:54:38;97271.22;;;7.36;95.32
70445;BME280;57902;49.638;11.070;2023-03-26T07:57:09;97264.53;;;7.32;95.22
70445;BME280;57902;49.638;11.070;2023-03-26T08:08:18;97243.84;;;7.36;96.33
70445;BME280;57902;49.638;11.070;2023-03-26T08:10:56;97236.44;;;7.29;97.71
70445;BME280;57902;49.638;11.070;2023-03-26T08:13:53;97228.94;;;7.23;99.18
70445;BME280;57902;49.638;11.070;2023-03-26T08:19:04;97227.31;;;7.20;100.00
70445;BME280;57902;49.638;11.070;2023-03-26T08:25:26;97230.41;;;7.03;100.00
70445;BME280;57902;49.638;11.070;2023-03-26T08:30:07;97230.47;;;7.01;100.00
70445;BME280;57902;49.638;11.070;2023-03-26T08:32:36;97231.50;;;6.96;100.00
70445;BME280;57902;49.638;11.070;2023-03-26T08:35:03;97219.19;;;7.07;100.00
70445;BME280;57902;49.638;11.070;2023-03-26T08:37:30;97210.41;;;7.14;100.00
70445;BME280;57902;49.638;11.070;2023-03-26T08:39:58;97210.50;;;7.11;100.00
70445;BME280;57902;49.638;11.070;2023-03-26T08:42:47;97206.28;;;7.10;100.00
70445;BME280;57902;49.638;11.070;2023-03-26T08:46:04;97202.19;;;7.05;100.00
70445;BME280;57902;49.638;11.070;2023-03-26T08:51:12;97193.03;;;6.97;100.00
70445;BME280;57902;49.638;11.070;2023-03-26T08:56:56;97180.91;;;7.28;100.00
70445;BME280;57902;49.638;11.070;2023-03-26T09:07:50;97182.81;;;7.23;100.00
70445;BME280;57902;49.638;11.070;2023-03-26T09:16:04;97172.94;;;7.10;100.00
70445;BME280;57902;49.638;11.070;2023-03-26T09:24:42;97169.19;;;6.95;100.00
70445;BME280;57902;49.638;11.070;2023-03-26T09:29:59;97165.28;;;6.83;100.00
70445;BME280;57902;49.638;11.070;2023-03-26T09:37:56;97163.03;;;7.01;100.00
70445;BME280;57902;49.638;11.070;2023-03-26T09:40:36;97155.97;;;7.08;100.00
70445;BME280;57902;49.638;11.070;2023-03-26T09:43:41;97156.22;;;7.00;100.00
70445;BME280;57902;49.638;11.070;2023-03-26T09:48:58;97161.81;;;7.11;100.00
70445;BME280;57902;49.638;11.070;2023-03-26T09:51:30;97158.81;;;6.98;100.00
70445;BME280;57902;49.638;11.070;2023-03-26T09:59:56;97149.50;;;6.97;100.00
70445;BME280;57902;49.638;11.070;2023-03-26T10:05:34;97158.63;;;7.05;100.00
70445;BME280;57902;49.638;11.070;2023-03-26T10:11:34;97156.97;;;7.04;100.00
70445;BME280;57902;49.638;11.070;2023-03-26T10:16:54;97150.06;;;7.06;100.00
70445;BME280;57902;49.638;11.070;2023-03-26T10:25:33;97135.00;;;7.22;100.00
70445;BME280;57902;49.638;11.070;2023-03-26T10:36:37;97140.94;;;6.97;100.00
70445;BME280;57902;49.638;11.070;2023-03-26T10:39:58;97128.41;;;6.89;100.00
70445;BME280;57902;49.638;11.070;2023-03-26T10:52:36;97110.97;;;6.74;100.00
70445;BME280;57902;49.638;11.070;2023-03-26T10:55:13;97114.00;;;6.85;100.00
70445;BME280;57902;49.638;11.070;2023-03-26T10:57:48;97119.13;;;6.85;100.00
70445;BME280;57902;49.638;11.070;2023-03-26T11:00:20;97118.38;;;6.83;100.00
70445;BME280;57902;49.638;11.070;2023-03-26T11:08:47;97110.41;;;6.91;100.00
70445;BME280;57902;49.638;11.070;2023-03-26T11:14:16;97100.78;;;6.72;100.00
70445;BME280;57902;49.638;11.070;2023-03-26T11:17:25;97100.28;;;6.88;100.00
70445;BME280;57902;49.638;11.070;2023-03-26T11:20:12;97096.03;;;6.87;100.00
70445;BME280;57902;49.638;11.070;2023-03-26T11:26:16;97088.44;;;7.09;100.00
70445;BME280;57902;49.638;11.070;2023-03-26T11:32:01;97077.03;;;7.17;100.00
70445;BME280;57902;49.638;11.070;2023-03-26T11:34:35;97071.03;;;7.42;100.00
70445;BME280;57902;49.638;11.070;2023-03-26T11:37:10;97063.44;;;7.39;100.00
70445;BME280;57902;49.638;11.070;2023-03-26T11:39:49;97060.00;;;7.40;100.00
70445;BME280;57902;49.638;11.070;2023-03-26T11:42:22;97058.16;;;7.44;100.00
70445;BME280;57902;49.638;11.070;2023-03-26T11:44:54;97058.59;;;7.31;100.00
70445;BME280;57902;49.638;11.070;2023-03-26T11:47:29;97052.44;;;7.37;100.00
70445;BME280;57902;49.638;11.070;2023-03-26T11:49:59;97058.09;;;7.22;100.00
70445;BME280;57902;49.638;11.070;2023-03-26T11:52:32;97055.69;;;7.17;100.00
70445;BME280;57902;49.638;11.070;2023-03-26T11:54:59;97049.78;;;7.15;100.00
70445;BME280;57902;49.638;11.070;2023-03-26T11:57:28;97053.97;;;7.17;100.00
70445;BME280;57902;49.638;11.070;2023-03-26T12:00:04;97054.13;;;7.13;100.00
70445;BME280;57902;49.638;11.070;2023-03-26T12:02:44;97050.81;;;7.11;100.00
70445;BME280;57902;49.638;11.070;2023-03-26T12:05:24;97057.38;;;6.93;100.00
70445;BME280;57902;49.638;11.070;2023-03-26T12:08:02;97046.94;;;6.99;100.00
70445;BME280;57902;49.638;11.070;2023-03-26T12:13:02;97054.88;;;6.91;100.00
70445;BME280;57902;49.638;11.070;2023-03-26T12:15:31;97048.16;;;6.89;100.00
70445;BME280;57902;49.638;11.070;2023-03-26T12:18:18;97036.59;;;7.02;100.00
70445;BME280;57902;49.638;11.070;2023-03-26T12:20:48;97010.09;;;7.01;100.00
70445;BME280;57902;49.638;11.070;2023-03-26T12:26:39;97023.03;;;7.22;100.00
70445;BME280;57902;49.638;11.070;2023-03-26T12:29:10;97003.72;;;7.37;100.00
70445;BME280;57902;49.638;11.070;2023-03-26T12:32:01;97009.94;;;7.53;100.00
70445;BME280;57902;49.638;11.070;2023-03-26T12:34:34;97005.19;;;7.66;100.00
70445;BME280;57902;49.638;11.070;2023-03-26T12:37:04;96990.13;;;7.57;100.00
70445;BME280;57902;49.638;11.070;2023-03-26T12:39:32;96974.78;;;7.78;100.00
70445;BME280;57902;49.638;11.070;2023-03-26T12:42:25;96979.41;;;8.12;100.00
70445;BME280;57902;49.638;11.070;2023-03-26T12:45:13;96980.72;;;8.43;100.00
70445;BME280;57902;49.638;11.070;2023-03-26T12:47:40;96972.00;;;8.68;100.00
70445;BME280;57902;49.638;11.070;2023-03-26T12:50:33;96956.28;;;8.95;100.00
70445;BME280;57902;49.638;11.070;2023-03-26T12:56:23;96954.00;;;8.88;100.00
70445;BME280;57902;49.638;11.070;2023-03-26T12:59:27;96953.84;;;8.91;100.00
70445;BME280;57902;49.638;11.070;2023-03-26T13:04:35;96958.94;;;9.12;100.00
70445;BME280;57902;49.638;11.070;2023-03-26T13:13:01;96951.28;;;9.85;97.77
70445;BME280;57902;49.638;11.070;2023-03-26T13:15:52;96939.28;;;9.67;99.58
70445;BME280;57902;49.638;11.070;2023-03-26T13:18:45;96950.47;;;9.66;98.29
70445;BME280;57902;49.638;11.070;2023-03-26T13:21:39;96946.78;;;9.71;96.35
70445;BME280;57902;49.638;11.070;2023-03-26T13:29:43;96937.34;;;10.24;96.77
70445;BME280;57902;49.638;11.070;2023-03-26T13:32:23;96928.56;;;10.46;93.32
70445;BME280;57902;49.638;11.070;2023-03-26T13:37:41;96935.16;;;10.52;90.32
70445;BME280;57902;49.638;11.070;2023-03-26T13:42:54;96931.03;;;10.65;91.71
70445;BME280;57902;49.638;11.070;2023-03-26T13:48:41;96913.41;;;10.73;88.02
70445;BME280;57902;49.638;11.070;2023-03-26T13:51:24;96906.63;;;10.72;88.33
70445;BME280;57902;49.638;11.070;2023-03-26T13:54:17;96904.56;;;10.61;88.50
70445;BME280;57902;49.638;11.070;2023-03-26T13:56:51;96901.78;;;10.66;88.25
70445;BME280;57902;49.638;11.070;2023-03-26T13:59:27;96905.66;;;10.57;88.78
70445;BME280;57902;49.638;11.070;2023-03-26T14:02:00;96908.41;;;10.54;88.62
70445;BME280;57902;49.638;11.070;2023-03-26T14:04:35;96913.72;;;10.16;92.24
70445;BME280;57902;49.638;11.070;2023-03-26T14:07:08;96922.03;;;9.86;93.55
70445;BME280;57902;49.638;11.070;2023-03-26T14:09:51;96906.66;;;9.85;91.91
70445;BME280;57902;49.638;11.070;2023-03-26T14:15:58;96902.41;;;9.84;91.93
70445;BME280;57902;49.638;11.070;2023-03-26T14:23:57;96892.66;;;9.90;95.43
70445;BME280;57902;49.638;11.070;2023-03-26T14:35:56;96856.94;;;10.02;91.29
70445;BME280;57902;49.638;11.070;2023-03-26T14:41:38;96856.16;;;10.17;86.86
70445;BME280;57902;49.638;11.070;2023-03-26T14:47:01;96848.41;;;10.17;88.41
70445;BME280;57902;49.638;11.070;2023-03-26T14:52:48;96851.72;;;10.03;89.81
70445;BME280;57902;49.638;11.070;2023-03-26T15:01:03;96840.06;;;10.47;90.77
70445;BME280;57902;49.638;11.070;2023-03-26T15:24:25;96818.97;;;10.56;84.63
70445;BME280;57902;49.638;11.070;2023-03-26T15:32:54;96818.03;;;10.73;85.25
70445;BME280;57902;49.638;11.070;2023-03-26T15:41:30;96824.97;;;11.05;81.77
70445;BME280;57902;49.638;11.070;2023-03-26T15:44:13;96825.63;;;11.08;81.68
70445;BME280;57902;49.638;11.070;2023-03-26T15:46:55;96825.63;;;11.08;82.17
70445;BME280;57902;49.638;11.070;2023-03-26T15:49:29;96822.56;;;11.01;83.92
70445;BME280;57902;49.638;11.070;2023-03-26T15:52:18;96820.28;;;11.11;82.30
70445;BME280;57902;49.638;11.070;2023-03-26T16:00:40;96807.34;;;10.97;82.88
70445;BME280;57902;49.638;11.070;2023-03-26T16:03:38;96805.34;;;10.86;80.81
70445;BME280;57902;49.638;11.070;2023-03-26T16:06:29;96812.50;;;10.81;81.75
70445;BME280;57902;49.638;11.070;2023-03-26T16:09:17;96810.56;;;10.84;81.54
70445;BME280;57902;49.638;11.070;2023-03-26T16:11:53;96813.06;;;10.86;78.28
70445;BME280;57902;49.638;11.070;2023-03-26T16:14:22;96808.75;;;10.71;79.28
70445;BME280;57902;49.638;11.070;2023-03-26T16:16:54;96805.56;;;10.65;77.92
70445;BME280;57902;49.638;11.070;2023-03-26T16:19:45;96799.34;;;10.70;76.70
70445;BME280;57902;49.638;11.070;2023-03-26T16:22:34;96799.53;;;10.66;74.80
70445;BME280;57902;49.638;11.070;2023-03-26T16:25:23;96801.19;;;10.52;71.08
70445;BME280;57902;49.638;11.070;2023-03-26T16:30:36;96802.91;;;10.51;69.89
70445;BME280;57902;49.638;11.070;2023-03-26T16:33:11;96799.59;;;10.49;69.30
70445;BME280;57902;49.638;11.070;2023-03-26T16:35:59;96802.50;;;10.43;69.66
70445;BME280;57902;49.638;11.070;2023-03-26T16:49:52;96802.72;;;10.05;72.70
70445;BME280;57902;49.638;11.070;2023-03-26T16:52:55;96809.63;;;9.87;74.03
70445;BME280;57902;49.638;11.070;2023-03-26T16:55:34;96807.59;;;9.76;74.82
70445;BME280;57902;49.638;11.070;2023-03-26T17:01:16;96818.19;;;9.52;76.56
70445;BME280;57902;49.638;11.070;2023-03-26T17:03:57;96809.66;;;9.52;78.39
70445;BME280;57902;49.638;11.070;2023-03-26T17:09:04;96825.44;;;9.26;82.66
70445;BME280;57902;49.638;11.070;2023-03-26T17:11:41;96819.59;;;9.23;84.60
70445;BME280;57902;49.638;11.070;2023-03-26T17:14:24;96821.75;;;9.13;87.17
70445;BME280;57902;49.638;11.070;2023-03-26T17:19:56;96823.53;;;8.93;87.53
70445;BME280;57902;49.638;11.070;2023-03-26T17:22:36;96831.59;;;8.86;88.19
70445;BME280;57902;49.638;11.070;2023-03-26T17:27:54;96828.41;;;8.62;91.92
70445;BME280;57902;49.638;11.070;2023-03-26T17:41:12;96840.53;;;8.18;93.32
70445;BME280;57902;49.638;11.070;2023-03-26T17:43:45;96837.34;;;8.13;93.62
70445;BME280;57902;49.638;11.070;2023-03-26T17:46:28;96849.63;;;8.06;95.71
70445;BME280;57902;49.638;11.070;2023-03-26T17:54:35;96864.81;;;8.11;97.71
70445;BME280;57902;49.638;11.070;2023-03-26T17:57:11;96864.53;;;8.17;97.88
70445;BME280;57902;49.638;11.070;2023-03-26T17:59:40;96881.41;;;8.23;97.79
70445;BME280;57902;49.638;11.070;2023-03-26T18:02:20;96876.50;;;8.18;98.92
70445;BME280;57902;49.638;11.070;2023-03-26T18:04:50;96880.00;;;8.16;98.95
70445;BME280;57902;49.638;11.070;2023-03-26T18:16:10;96894.78;;;8.11;98.94
70445;BME280;57902;49.638;11.070;2023-03-26T18:18:48;96892.03;;;8.15;98.43
70445;BME280;57902;49.638;11.070;2023-03-26T18:21:38;96893.31;;;8.26;95.17